Beulaville, North Carolina
Current Conditions -  °F | °C
As of 11:15 AM on Tuesday 21 Oct 2014 (Local Time) from KOAJ Reporting Station
Clear Clear  
Wind Chill: 72°   Ceiling: Unl
Heat Index: 72°   Visibility: 9mi
Dew Point: 50°   Wind: 7mph
Humidity: 46%   Direction: 270°W
Pressure: 29.92"   Gusts: NA
Location:  34.92°N, 77.77°W
Report Text: KOAJ 211515Z AUTO 27006KT 9SM CLR 22/10 A2992 RMK AO1
Loading
Personal Weather Stations






























Interactive Weather Map
Tropical Storm Tracking
New forecast layout! Learn more

10-Day Weather Forecast

Advertisements
Track Severe Weather on mobile